Time;durP1;ratioP1;P1;durP2;ratioP2;P2;SDS_P1;SDS_P2;PMS_P1;PMS_P2;Temp;Humidity;BMP_temperature;BMP_pressure;BME280_temperature;BME280_humidity;BME280_pressure;Samples;Min_cycle;Max_cycle;Signal;HPM_P1;HPM_P2
2022/04/19 00:00:51;;;;;;;14.18;6.78;;;12.20;58.50;;;;;;5047615;28;20049;-67
2022/04/19 00:03:18;;;;;;;8.60;5.90;;;12.20;58.30;;;;;;5045202;28;20546;-66
2022/04/19 00:05:44;;;;;;;9.95;5.90;;;12.10;58.20;;;;;;5046456;28;20056;-67
2022/04/19 00:08:11;;;;;;;11.02;6.47;;;12.10;58.20;;;;;;5047178;28;20398;-67
2022/04/19 00:10:40;;;;;;;7.57;5.72;;;12.10;58.20;;;;;;5047628;28;20056;-66
2022/04/19 00:13:07;;;;;;;9.18;6.22;;;12.10;58.40;;;;;;5047252;28;20509;-67
2022/04/19 00:15:33;;;;;;;8.25;5.68;;;12.00;58.50;;;;;;5045980;28;20037;-67
2022/04/19 00:18:01;;;;;;;9.23;6.20;;;11.90;58.60;;;;;;5046404;28;20037;-66
2022/04/19 00:20:28;;;;;;;10.80;5.13;;;11.90;58.50;;;;;;5044465;28;20429;-67
2022/04/19 00:22:54;;;;;;;7.60;5.28;;;11.90;58.40;;;;;;5049046;28;20045;-66
2022/04/19 00:25:20;;;;;;;7.20;5.57;;;11.80;58.50;;;;;;5051327;28;20060;-66
2022/04/19 00:27:46;;;;;;;8.27;6.43;;;11.80;58.50;;;;;;5051167;28;20048;-66
2022/04/19 00:30:12;;;;;;;9.45;5.70;;;11.80;58.50;;;;;;5051172;28;20046;-66
2022/04/19 00:32:39;;;;;;;13.45;6.78;;;11.80;58.50;;;;;;5051281;28;20067;-67
2022/04/19 00:35:07;;;;;;;8.60;6.28;;;11.70;58.50;;;;;;5051083;28;20505;-67
2022/04/19 00:37:33;;;;;;;7.90;5.60;;;11.80;58.60;;;;;;5050913;28;20082;-67
2022/04/19 00:40:01;;;;;;;14.20;6.88;;;11.70;58.60;;;;;;5050818;28;20406;-66
2022/04/19 00:42:30;;;;;;;10.15;6.68;;;11.70;58.60;;;;;;5048919;28;20535;-67
2022/04/19 00:44:58;;;;;;;20.25;9.73;;;11.70;58.50;;;;;;5048485;28;20076;-67
2022/04/19 00:47:24;;;;;;;13.75;7.47;;;11.70;58.30;;;;;;5050958;28;20044;-67
2022/04/19 00:49:50;;;;;;;15.30;8.13;;;11.60;58.40;;;;;;5050695;28;21003;-67
2022/04/19 00:52:16;;;;;;;11.85;7.25;;;11.60;58.40;;;;;;5049458;28;20044;-67
2022/04/19 00:54:41;;;;;;;11.88;7.18;;;11.60;58.80;;;;;;5049796;28;20064;-68
2022/04/19 00:57:08;;;;;;;17.77;8.35;;;11.60;59.00;;;;;;5050950;28;20397;-67
2022/04/19 00:59:33;;;;;;;12.80;7.30;;;11.60;59.00;;;;;;5050039;28;20516;-68
2022/04/19 01:02:00;;;;;;;14.02;7.72;;;11.60;59.10;;;;;;5050376;28;20104;-67
2022/04/19 01:04:26;;;;;;;13.38;8.10;;;11.60;59.90;;;;;;5049076;28;20446;-67
2022/04/19 01:06:52;;;;;;;15.25;8.07;;;11.60;59.90;;;;;;5050510;28;20517;-67
2022/04/19 01:09:19;;;;;;;14.27;6.97;;;11.50;59.80;;;;;;5050001;28;20072;-67
2022/04/19 01:14:30;;;;;;;17.55;8.25;;;11.50;59.10;;;;;;5049987;28;20174;-67
2022/04/19 01:16:56;;;;;;;10.85;7.18;;;11.40;58.80;;;;;;5048440;28;20408;-67
2022/04/19 01:19:22;;;;;;;11.88;7.30;;;11.40;58.70;;;;;;5050476;28;20120;-67
2022/04/19 01:21:50;;;;;;;16.50;7.97;;;11.40;58.60;;;;;;5048974;28;20049;-67
2022/04/19 01:24:18;;;;;;;11.23;7.18;;;11.40;58.60;;;;;;5050137;28;20486;-67
2022/04/19 01:26:44;;;;;;;12.25;7.53;;;11.40;58.60;;;;;;5050209;28;20172;-67
2022/04/19 01:29:10;;;;;;;12.90;7.50;;;11.40;58.60;;;;;;5048198;28;20048;-67
2022/04/19 01:31:38;;;;;;;10.75;6.35;;;11.30;58.70;;;;;;5050520;28;20497;-67
2022/04/19 01:34:04;;;;;;;14.27;8.18;;;11.30;58.70;;;;;;5048622;28;20107;-67
2022/04/19 01:36:29;;;;;;;11.70;7.00;;;11.30;58.70;;;;;;5050043;28;20502;-67
2022/04/19 01:38:55;;;;;;;10.98;7.35;;;11.30;59.00;;;;;;5049348;28;20467;-65
2022/04/19 01:41:21;;;;;;;13.52;7.93;;;11.20;59.10;;;;;;5050216;28;20071;-65
2022/04/19 01:43:47;;;;;;;10.45;6.72;;;11.20;59.30;;;;;;5050055;28;20045;-65
2022/04/19 01:46:14;;;;;;;10.27;6.68;;;11.20;59.50;;;;;;5049766;28;20488;-65
2022/04/19 01:48:40;;;;;;;10.70;6.80;;;11.10;59.80;;;;;;5049649;28;20033;-66
2022/04/19 01:51:06;;;;;;;10.98;6.43;;;11.10;60.10;;;;;;5049961;28;20040;-66
2022/04/19 01:53:32;;;;;;;11.70;7.55;;;11.10;60.10;;;;;;5049917;28;20237;-66
2022/04/19 01:55:58;;;;;;;11.10;7.03;;;11.10;60.10;;;;;;5049791;28;20126;-66
2022/04/19 01:58:23;;;;;;;11.75;7.55;;;11.10;60.10;;;;;;5048430;28;20052;-66
2022/04/19 02:00:49;;;;;;;10.70;7.35;;;11.10;60.10;;;;;;5049586;28;20029;-66
2022/04/19 02:03:15;;;;;;;14.63;8.50;;;11.00;60.20;;;;;;5049592;28;20037;-66
2022/04/19 02:05:40;;;;;;;12.65;7.32;;;10.90;60.20;;;;;;5049762;28;20099;-66
2022/04/19 02:08:06;;;;;;;11.38;7.80;;;11.00;60.30;;;;;;5050153;28;20060;-66
2022/04/19 02:10:32;;;;;;;12.93;7.65;;;11.00;60.30;;;;;;5052262;28;20397;-66
2022/04/19 02:12:57;;;;;;;10.95;6.88;;;10.90;60.40;;;;;;5049082;28;20049;-66
2022/04/19 02:15:23;;;;;;;10.60;7.47;;;10.90;60.40;;;;;;5049273;28;20079;-66
2022/04/19 02:17:50;;;;;;;10.55;6.93;;;10.90;60.60;;;;;;5049275;28;20033;-66
2022/04/19 02:20:17;;;;;;;9.23;6.75;;;10.90;60.70;;;;;;5049123;28;20036;-66
2022/04/19 02:22:43;;;;;;;9.63;6.85;;;10.80;60.80;;;;;;5049049;28;20045;-66
2022/04/19 02:25:11;;;;;;;9.68;6.20;;;10.80;60.90;;;;;;5049174;28;20331;-66
2022/04/19 02:27:39;;;;;;;10.35;7.10;;;10.80;61.10;;;;;;5048172;28;20067;-66
2022/04/19 02:30:06;;;;;;;13.43;6.70;;;10.80;61.10;;;;;;5048949;28;20052;-65
2022/04/19 02:32:33;;;;;;;15.85;7.35;;;10.70;61.20;;;;;;5049167;28;20045;-66
2022/04/19 02:34:59;;;;;;;11.40;6.63;;;10.80;61.30;;;;;;5048916;28;20041;-66
2022/04/19 02:37:25;;;;;;;12.10;8.13;;;10.70;61.40;;;;;;5049316;28;20721;-66
2022/04/19 02:39:51;;;;;;;14.82;6.75;;;10.70;61.70;;;;;;5049642;28;20080;-66
2022/04/19 02:42:17;;;;;;;12.88;8.32;;;10.60;61.90;;;;;;5049921;28;20482;-67
2022/04/19 02:44:43;;;;;;;11.48;7.65;;;10.60;62.10;;;;;;5049294;28;20071;-67
2022/04/19 02:47:09;;;;;;;11.05;7.60;;;10.60;62.20;;;;;;5048993;28;20490;-67
2022/04/19 02:49:36;;;;;;;13.55;8.25;;;10.60;62.10;;;;;;5049319;28;20098;-67
2022/04/19 02:52:03;;;;;;;12.52;7.72;;;10.60;62.10;;;;;;5049734;28;20049;-67
2022/04/19 02:54:29;;;;;;;12.27;7.22;;;10.60;62.10;;;;;;5049593;28;20094;-66
2022/04/19 02:56:54;;;;;;;10.00;7.15;;;10.60;62.00;;;;;;5049167;28;20041;-67
2022/04/19 02:59:20;;;;;;;10.65;6.78;;;10.60;62.00;;;;;;5048944;28;20080;-67
2022/04/19 03:01:46;;;;;;;11.07;6.90;;;10.50;62.10;;;;;;5049221;28;20048;-67
2022/04/19 03:04:11;;;;;;;10.40;6.65;;;10.50;62.20;;;;;;5049146;28;20044;-66
2022/04/19 03:06:37;;;;;;;10.77;6.63;;;10.50;62.30;;;;;;5049201;28;20586;-66
2022/04/19 03:09:02;;;;;;;11.07;7.60;;;10.50;62.30;;;;;;5048857;28;20047;-66
2022/04/19 03:11:28;;;;;;;11.23;7.30;;;10.40;62.30;;;;;;5048488;28;20401;-66
2022/04/19 03:13:55;;;;;;;9.38;6.75;;;10.40;62.40;;;;;;5047839;28;20061;-66
2022/04/19 03:16:21;;;;;;;10.35;6.70;;;10.30;62.40;;;;;;5049236;28;20055;-66
2022/04/19 03:18:49;;;;;;;13.10;7.55;;;10.30;62.50;;;;;;5048113;28;20041;-66
2022/04/19 03:21:15;;;;;;;10.15;6.80;;;10.30;62.60;;;;;;5047982;28;20060;-67
2022/04/19 03:29:11;;;;;;;8.93;6.68;;;10.10;62.80;;;;;;5048041;28;20045;-67
2022/04/19 03:31:36;;;;;;;13.40;7.30;;;10.10;63.10;;;;;;5048497;28;20119;-66
2022/04/19 03:34:06;;;;;;;10.10;7.13;;;10.10;63.10;;;;;;5047880;28;20474;-67
2022/04/19 03:36:32;;;;;;;9.57;6.43;;;10.10;63.20;;;;;;5048659;28;20049;-67
2022/04/19 03:38:58;;;;;;;14.13;7.15;;;10.10;63.30;;;;;;5047609;28;20112;-66
2022/04/19 03:41:24;;;;;;;9.63;6.32;;;10.00;63.30;;;;;;5047996;28;20037;-67
2022/04/19 03:43:53;;;;;;;12.90;7.22;;;10.10;63.20;;;;;;5047342;28;20396;-67
2022/04/19 03:46:19;;;;;;;10.52;6.90;;;10.00;63.00;;;;;;5030674;28;20088;-66
2022/04/19 03:48:45;;;;;;;9.07;6.85;;;10.00;62.90;;;;;;5046430;28;20081;-66
2022/04/19 03:51:11;;;;;;;8.15;6.05;;;10.00;62.80;;;;;;5048159;28;20048;-67
2022/04/19 03:53:36;;;;;;;9.00;6.25;;;9.90;62.70;;;;;;5047910;28;20677;-67
2022/04/19 03:56:05;;;;;;;13.07;6.40;;;9.90;62.70;;;;;;5048319;28;20041;-67
2022/04/19 03:58:32;;;;;;;12.50;7.28;;;9.90;62.60;;;;;;5050718;28;20076;-66
2022/04/19 04:01:00;;;;;;;13.80;7.93;;;9.90;62.50;;;;;;5051142;28;20106;-66
2022/04/19 04:03:26;;;;;;;10.30;6.85;;;9.90;62.50;;;;;;5051634;28;20041;-66
2022/04/19 04:05:51;;;;;;;14.90;7.10;;;9.80;62.60;;;;;;5052177;28;20048;-66
2022/04/19 04:08:17;;;;;;;10.25;6.75;;;9.80;62.50;;;;;;5050567;28;20041;-66
2022/04/19 04:10:43;;;;;;;10.55;6.88;;;9.70;62.20;;;;;;5051608;28;20033;-66
2022/04/19 04:13:09;;;;;;;10.02;6.78;;;9.70;62.20;;;;;;5051127;28;20524;-67
2022/04/19 04:15:35;;;;;;;15.18;7.07;;;9.60;62.50;;;;;;5051732;28;20055;-66
2022/04/19 04:18:01;;;;;;;10.43;7.53;;;9.60;62.80;;;;;;5051162;28;20079;-66
2022/04/19 04:20:26;;;;;;;9.98;7.18;;;9.50;63.10;;;;;;5051757;28;20080;-66
2022/04/19 04:22:52;;;;;;;13.68;7.25;;;9.50;63.30;;;;;;5051473;28;20087;-66
2022/04/19 04:25:18;;;;;;;12.25;7.05;;;9.40;63.40;;;;;;5051491;28;20045;-67
2022/04/19 04:27:43;;;;;;;8.93;6.90;;;9.40;63.60;;;;;;5051385;28;20119;-67
2022/04/19 04:30:09;;;;;;;10.32;7.07;;;9.30;63.80;;;;;;5051433;28;20520;-68
2022/04/19 04:32:34;;;;;;;11.50;7.38;;;9.30;64.00;;;;;;5050372;28;20049;-65
2022/04/19 04:35:00;;;;;;;14.63;7.88;;;9.30;64.20;;;;;;5051750;28;20494;-65
2022/04/19 04:37:26;;;;;;;12.48;8.07;;;9.30;64.40;;;;;;5050808;28;20041;-66
2022/04/19 04:39:52;;;;;;;12.85;7.70;;;9.30;64.50;;;;;;5051580;28;20074;-67
2022/04/19 04:42:17;;;;;;;10.60;6.97;;;9.30;64.60;;;;;;5050319;28;20486;-67
2022/04/19 04:44:43;;;;;;;13.55;8.15;;;9.30;64.70;;;;;;5049413;28;20494;-66
2022/04/19 04:49:56;;;;;;;12.38;7.57;;;9.30;65.20;;;;;;5051474;28;20437;-66
2022/04/19 04:52:22;;;;;;;11.55;8.02;;;9.30;65.20;;;;;;5053610;28;20120;-65
2022/04/19 04:54:51;;;;;;;14.00;9.27;;;9.30;65.30;;;;;;5059003;28;20498;-64
2022/04/19 04:57:19;;;;;;;14.73;9.02;;;9.30;65.60;;;;;;5051383;28;20083;-64
2022/04/19 04:59:47;;;;;;;15.30;9.48;;;9.30;65.50;;;;;;5033723;28;20527;-65
2022/04/19 05:02:12;;;;;;;14.18;9.20;;;9.30;65.60;;;;;;5051037;28;20043;-65
2022/04/19 05:04:38;;;;;;;15.38;9.00;;;9.30;65.70;;;;;;5051064;28;20448;-65
2022/04/19 05:07:04;;;;;;;13.68;8.85;;;9.30;65.70;;;;;;5051554;28;20639;-65
2022/04/19 05:09:33;;;;;;;14.85;9.05;;;9.40;65.80;;;;;;5062077;28;20707;-63
2022/04/19 05:11:59;;;;;;;12.68;8.98;;;9.40;66.00;;;;;;5049838;28;20136;-64
2022/04/19 05:14:25;;;;;;;13.50;8.50;;;9.50;66.00;;;;;;5050446;28;20131;-63
2022/04/19 05:16:50;;;;;;;16.08;8.68;;;9.40;66.10;;;;;;5049627;28;20064;-64
2022/04/19 05:19:16;;;;;;;15.70;9.10;;;9.50;66.30;;;;;;5050452;28;20037;-63
2022/04/19 05:21:42;;;;;;;12.77;8.70;;;9.50;66.10;;;;;;5051360;28;20041;-64
2022/04/19 05:24:09;;;;;;;14.32;8.80;;;9.50;66.20;;;;;;5033156;28;20075;-64
2022/04/19 05:26:35;;;;;;;12.32;9.00;;;9.50;66.20;;;;;;5051317;28;20509;-64
2022/04/19 05:29:01;;;;;;;11.60;7.70;;;9.60;66.20;;;;;;5050864;28;20455;-64
2022/04/19 05:31:27;;;;;;;13.38;7.95;;;9.60;66.20;;;;;;5051100;28;20037;-64
2022/04/19 05:33:52;;;;;;;11.75;7.18;;;9.60;66.30;;;;;;5050577;28;20391;-66
2022/04/19 05:36:18;;;;;;;12.40;8.57;;;9.70;66.50;;;;;;5050574;28;20067;-65
2022/04/19 05:38:43;;;;;;;12.82;8.35;;;9.70;66.20;;;;;;5049499;28;20075;-66
2022/04/19 05:41:10;;;;;;;15.07;8.85;;;9.80;66.10;;;;;;5050274;28;20041;-66
2022/04/19 05:43:36;;;;;;;12.40;7.78;;;9.80;66.00;;;;;;5049755;28;20045;-67
2022/04/19 05:46:01;;;;;;;15.60;8.88;;;9.90;65.90;;;;;;5050693;28;20049;-67
2022/04/19 05:48:28;;;;;;;13.85;8.13;;;9.90;65.80;;;;;;5050608;28;20037;-67
2022/04/19 05:50:53;;;;;;;12.25;7.93;;;9.90;65.80;;;;;;5051069;28;20052;-67
2022/04/19 05:53:19;;;;;;;14.18;7.80;;;10.00;65.80;;;;;;5049806;28;20044;-66
2022/04/19 05:55:45;;;;;;;16.10;8.05;;;10.00;65.70;;;;;;5050267;28;20041;-66
2022/04/19 05:58:11;;;;;;;15.18;8.68;;;10.00;65.60;;;;;;5050215;28;20083;-66
2022/04/19 06:00:36;;;;;;;15.05;8.68;;;10.10;65.50;;;;;;5049832;28;20052;-67
2022/04/19 06:05:47;;;;;;;17.35;9.05;;;10.20;65.50;;;;;;5050178;28;20500;-66
2022/04/19 06:08:14;;;;;;;15.35;8.65;;;10.30;65.40;;;;;;5031976;28;20053;-66
2022/04/19 06:10:40;;;;;;;15.57;8.60;;;10.30;65.40;;;;;;5050098;28;20413;-66
2022/04/19 06:13:07;;;;;;;14.82;7.88;;;10.40;65.40;;;;;;5049397;28;20064;-67
2022/04/19 06:15:32;;;;;;;17.75;9.65;;;10.40;65.40;;;;;;5049295;28;20562;-66
2022/04/19 06:17:58;;;;;;;6.68;3.45;;;10.60;65.40;;;;;;5049144;28;20033;-69
2022/04/19 06:20:24;;;;;;;16.42;9.50;;;11.10;70.00;;;;;;5047851;28;20064;-67
2022/04/19 06:22:50;;;;;;;15.15;9.63;;;11.50;66.60;;;;;;5049745;28;20052;-67
2022/04/19 06:25:16;;;;;;;14.35;9.18;;;11.60;64.70;;;;;;5049400;28;20136;-67
2022/04/19 06:27:41;;;;;;;12.43;8.93;;;11.50;63.70;;;;;;5049415;28;20063;-66
2022/04/19 06:30:08;;;;;;;11.43;7.97;;;11.40;63.50;;;;;;5049111;28;20397;-66
2022/04/19 06:32:34;;;;;;;11.48;8.15;;;11.40;63.30;;;;;;5049519;28;20116;-65
2022/04/19 06:35:00;;;;;;;12.38;9.30;;;11.30;63.30;;;;;;5049550;28;20049;-65
2022/04/19 06:37:26;;;;;;;12.93;8.43;;;11.30;63.30;;;;;;5048675;28;20743;-65
2022/04/19 06:39:52;;;;;;;13.13;9.38;;;11.30;63.60;;;;;;5049419;28;20045;-65
2022/04/19 06:42:18;;;;;;;19.08;8.80;;;11.40;63.70;;;;;;5047657;28;20132;-65
2022/04/19 06:44:44;;;;;;;12.80;8.60;;;11.50;63.80;;;;;;5049216;28;20110;-65
2022/04/19 06:47:10;;;;;;;14.45;9.77;;;11.50;64.00;;;;;;5048349;28;20049;-65
2022/04/19 06:49:37;;;;;;;13.38;9.18;;;11.60;64.30;;;;;;5049328;28;20106;-66
2022/04/19 06:52:06;;;;;;;22.38;9.07;;;11.60;64.20;;;;;;5048281;28;20084;-66
2022/04/19 06:54:32;;;;;;;12.95;9.20;;;11.70;63.90;;;;;;5048357;28;20144;-65
2022/04/19 06:56:57;;;;;;;10.77;8.13;;;11.70;63.90;;;;;;5048408;28;20119;-65
2022/04/19 06:59:23;;;;;;;14.50;8.63;;;11.70;63.90;;;;;;5048455;28;20349;-65
2022/04/19 07:01:49;;;;;;;14.27;9.50;;;11.80;63.80;;;;;;5048011;28;20040;-64
2022/04/19 07:04:15;;;;;;;14.68;8.90;;;11.90;64.00;;;;;;5048540;28;20317;-65
2022/04/19 07:06:41;;;;;;;11.35;8.30;;;11.90;63.70;;;;;;5048911;28;20097;-66
2022/04/19 07:09:06;;;;;;;18.23;9.38;;;12.00;63.70;;;;;;5048632;28;20438;-65
2022/04/19 07:11:32;;;;;;;11.95;8.38;;;12.00;63.50;;;;;;5048334;28;20563;-67
2022/04/19 07:13:57;;;;;;;11.60;8.35;;;12.10;63.30;;;;;;5048470;28;20056;-66
2022/04/19 07:16:23;;;;;;;13.95;9.15;;;12.10;63.20;;;;;;5048474;28;20144;-65
2022/04/19 07:18:49;;;;;;;12.45;8.15;;;12.10;63.10;;;;;;5047874;28;20048;-66
2022/04/19 07:26:47;;;;;;;12.88;9.13;;;12.30;63.40;;;;;;5042867;28;20061;-65
2022/04/19 07:29:15;;;;;;;17.85;9.27;;;12.30;62.90;;;;;;5047404;28;20045;-65
2022/04/19 07:31:42;;;;;;;12.40;7.28;;;12.40;62.70;;;;;;5048036;28;20143;-65
2022/04/19 07:34:10;;;;;;;10.90;7.10;;;12.50;62.70;;;;;;5048421;28;20544;-65
2022/04/19 07:36:37;;;;;;;12.38;8.70;;;12.50;62.90;;;;;;5046234;28;20508;-66
2022/04/19 07:39:06;;;;;;;13.95;7.78;;;12.60;62.70;;;;;;5046339;28;20521;-66
2022/04/19 07:41:34;;;;;;;10.95;8.43;;;12.70;62.40;;;;;;5048153;28;20556;-66
2022/04/19 07:44:01;;;;;;;14.20;8.43;;;12.80;61.90;;;;;;5047536;28;20543;-66
2022/04/19 07:46:27;;;;;;;14.43;8.63;;;12.90;61.70;;;;;;5048293;28;20107;-63
2022/04/19 07:48:53;;;;;;;13.25;9.20;;;12.90;61.80;;;;;;5047689;28;20437;-65
2022/04/19 07:51:19;;;;;;;14.70;9.52;;;13.00;61.80;;;;;;5047471;28;20037;-65
2022/04/19 07:53:45;;;;;;;16.55;9.00;;;13.00;61.40;;;;;;5048074;28;20044;-65
2022/04/19 07:56:13;;;;;;;17.73;8.95;;;13.00;60.90;;;;;;5048580;28;20049;-66
2022/04/19 07:58:39;;;;;;;14.63;9.73;;;13.10;60.80;;;;;;5048379;28;20110;-65
2022/04/19 08:01:05;;;;;;;12.50;8.88;;;13.10;60.90;;;;;;5046209;28;20055;-66
2022/04/19 08:03:31;;;;;;;13.65;8.57;;;13.20;60.80;;;;;;5048004;28;20496;-67
2022/04/19 08:05:56;;;;;;;15.73;9.60;;;13.30;60.40;;;;;;5047319;28;20071;-67
2022/04/19 08:08:22;;;;;;;20.38;10.70;;;13.30;60.30;;;;;;5047960;28;20037;-66
2022/04/19 08:10:49;;;;;;;12.57;7.78;;;13.40;60.30;;;;;;5047520;28;20044;-71
2022/04/19 08:13:15;;;;;;;12.93;8.65;;;13.50;60.10;;;;;;5046670;28;20053;-66
2022/04/19 08:15:40;;;;;;;11.65;7.95;;;13.50;60.10;;;;;;5048344;28;20103;-65
2022/04/19 08:18:07;;;;;;;13.85;8.77;;;13.60;59.70;;;;;;5048146;28;20060;-65
2022/04/19 08:20:33;;;;;;;16.48;9.55;;;13.60;59.50;;;;;;5047933;28;20788;-66
2022/04/19 08:22:59;;;;;;;12.55;8.18;;;13.60;59.40;;;;;;5048529;28;20048;-66
2022/04/19 08:25:25;;;;;;;12.20;8.57;;;13.70;59.30;;;;;;5048547;28;20087;-66
2022/04/19 08:27:52;;;;;;;15.65;8.57;;;13.80;58.50;;;;;;5046873;28;20057;-69
2022/04/19 08:30:18;;;;;;;12.82;8.07;;;13.90;58.10;;;;;;5047652;28;20049;-66
2022/04/19 08:32:45;;;;;;;13.98;8.10;;;14.00;57.80;;;;;;5048605;28;20037;-66
2022/04/19 08:35:11;;;;;;;11.52;7.78;;;14.10;57.70;;;;;;5047862;28;20085;-66
2022/04/19 08:37:37;;;;;;;12.15;7.75;;;14.10;57.90;;;;;;5048013;28;20152;-64
2022/04/19 08:40:08;;;;;;;13.10;8.05;;;14.20;58.10;;;;;;5047898;28;20457;-63
2022/04/19 08:42:39;;;;;;;12.60;7.50;;;14.30;58.10;;;;;;5047548;28;20539;-65
2022/04/19 08:45:07;;;;;;;11.82;7.38;;;14.30;57.90;;;;;;5050324;28;20088;-66
2022/04/19 08:47:38;;;;;;;11.23;6.63;;;14.40;57.10;;;;;;5051220;28;20088;-66
2022/04/19 08:50:07;;;;;;;10.60;6.20;;;14.40;57.00;;;;;;5051479;28;20076;-66
2022/04/19 08:52:34;;;;;;;27.15;10.15;;;14.50;57.00;;;;;;5051540;28;20057;-66
2022/04/19 08:57:44;;;;;;;13.90;6.88;;;14.60;57.00;;;;;;5051815;28;20045;-66
2022/04/19 09:00:12;;;;;;;11.52;7.20;;;14.60;56.80;;;;;;5050333;28;20413;-66
2022/04/19 09:02:38;;;;;;;9.30;5.50;;;14.70;56.80;;;;;;5050230;28;20091;-65
2022/04/19 09:05:16;;;;;;;9.10;5.80;;;14.80;57.10;;;;;;5051860;28;20080;-66
2022/04/19 09:07:43;;;;;;;10.38;5.70;;;14.90;56.60;;;;;;5051752;28;20102;-64
2022/04/19 09:10:16;;;;;;;11.38;5.63;;;14.90;56.80;;;;;;5051564;28;20087;-64
2022/04/19 09:13:06;;;;;;;8.82;4.40;;;15.10;56.70;;;;;;5049905;28;20083;-64
2022/04/19 09:15:42;;;;;;;8.93;5.18;;;15.10;55.90;;;;;;5044690;28;20463;-66
2022/04/19 09:18:24;;;;;;;9.23;4.72;;;15.20;55.70;;;;;;5050468;28;20059;-64
2022/04/19 09:20:54;;;;;;;8.18;4.30;;;15.30;55.70;;;;;;5051561;28;20102;-65
2022/04/19 09:23:20;;;;;;;8.82;4.38;;;15.30;55.50;;;;;;5050793;28;20094;-65
2022/04/19 09:25:50;;;;;;;9.57;5.20;;;15.40;55.30;;;;;;5050277;28;20045;-66
2022/04/19 09:28:21;;;;;;;8.55;4.57;;;15.50;54.90;;;;;;5050585;28;20144;-66
2022/04/19 09:30:52;;;;;;;13.90;5.28;;;15.60;54.60;;;;;;5051000;28;20409;-66
2022/04/19 09:33:22;;;;;;;11.02;5.00;;;15.60;54.10;;;;;;5050308;28;20055;-65
2022/04/19 09:35:50;;;;;;;8.82;5.00;;;15.70;53.90;;;;;;5050569;28;20048;-65
2022/04/19 09:38:17;;;;;;;18.02;4.75;;;15.70;53.90;;;;;;5050347;28;20076;-64
2022/04/19 09:40:49;;;;;;;7.13;5.15;;;15.80;53.70;;;;;;5050891;28;20450;-65
2022/04/19 09:43:20;;;;;;;;;;;15.90;54.10;;;;;;5051139;28;20088;-65
2022/04/19 09:45:58;;;;;;;7.32;4.78;;;15.90;53.90;;;;;;5048755;28;19921;-67
2022/04/19 09:48:32;;;;;;;7.80;3.80;;;16.00;53.90;;;;;;5049943;28;20171;-65
2022/04/19 09:51:02;;;;;;;9.50;4.38;;;16.10;53.50;;;;;;5050580;28;20049;-65
2022/04/19 09:53:40;;;;;;;9.30;4.38;;;16.10;53.00;;;;;;5049909;28;20518;-65
2022/04/19 09:56:15;;;;;;;9.02;3.67;;;16.20;51.20;;;;;;5048946;28;20048;-65
2022/04/19 09:58:51;;;;;;;7.03;3.13;;;16.20;51.50;;;;;;5050584;28;20049;-65
2022/04/19 10:09:26;;;;;;;7.53;3.95;;;16.30;50.90;;;;;;5049612;28;20581;-64
2022/04/19 10:11:52;;;;;;;8.07;3.50;;;16.30;50.80;;;;;;5049628;28;20151;-64
2022/04/19 10:14:21;;;;;;;8.27;3.97;;;16.40;49.50;;;;;;5050233;28;20053;-64
2022/04/19 10:16:48;;;;;;;6.30;3.65;;;16.30;49.40;;;;;;5050319;28;20049;-64
2022/04/19 10:19:15;;;;;;;5.68;2.95;;;16.30;50.30;;;;;;5045424;28;20422;-64
2022/04/19 10:21:42;;;;;;;5.13;3.22;;;16.30;50.20;;;;;;5047768;28;20079;-64
2022/04/19 10:24:13;;;;;;;5.50;3.30;;;16.40;50.10;;;;;;5048395;28;20059;-64
2022/04/19 10:26:51;;;;;;;4.03;2.70;;;16.50;50.00;;;;;;5050135;28;20053;-64
2022/04/19 10:29:17;;;;;;;4.60;2.40;;;16.50;49.50;;;;;;5047893;28;20056;-64
2022/04/19 10:31:55;;;;;;;4.47;1.80;;;16.50;48.80;;;;;;5048394;28;20492;-64
2022/04/19 10:34:25;;;;;;;7.07;1.80;;;16.50;48.90;;;;;;5049323;28;20041;-65
2022/04/19 10:36:54;;;;;;;4.15;1.67;;;16.60;48.90;;;;;;5047640;28;20131;-63
2022/04/19 10:39:22;;;;;;;2.33;1.50;;;16.60;49.00;;;;;;5046656;28;20489;-64
2022/04/19 10:41:55;;;;;;;3.85;1.48;;;16.60;48.10;;;;;;5049025;28;20049;-64
2022/04/19 10:44:32;;;;;;;3.33;1.63;;;16.70;46.20;;;;;;5048992;28;20493;-64
2022/04/19 10:47:03;;;;;;;2.42;1.55;;;16.60;46.00;;;;;;5048891;28;20048;-65
2022/04/19 10:49:29;;;;;;;4.15;1.95;;;16.60;46.20;;;;;;5047912;28;20041;-64
2022/04/19 10:52:01;;;;;;;2.08;1.10;;;16.60;46.60;;;;;;5049043;28;20041;-64
2022/04/19 10:54:45;;;;;;;;;;;16.70;44.60;;;;;;5049844;28;20041;-64
2022/04/19 11:00:20;;;;;;;3.00;1.35;;;16.60;42.90;;;;;;5049160;28;20490;-65
2022/04/19 11:02:57;;;;;;;6.43;1.38;;;16.60;42.00;;;;;;5047916;28;20052;-64
2022/04/19 11:05:41;;;;;;;3.17;1.30;;;16.60;41.50;;;;;;5048304;28;20132;-64
2022/04/19 11:08:25;;;;;;;2.47;1.42;;;16.70;39.90;;;;;;5045099;28;20057;-64
2022/04/19 11:11:02;;;;;;;2.53;0.95;;;16.80;42.10;;;;;;5048570;28;20125;-64
2022/04/19 11:13:27;;;;;;;2.80;0.98;;;16.80;42.70;;;;;;5048773;28;20536;-64
2022/04/19 11:16:05;;;;;;;3.03;1.13;;;17.00;42.80;;;;;;5049172;28;20049;-64
2022/04/19 11:18:40;;;;;;;2.25;1.20;;;17.10;42.10;;;;;;5048240;28;20037;-65
2022/04/19 11:21:13;;;;;;;4.50;1.33;;;17.10;42.00;;;;;;5047837;28;20060;-65
2022/04/19 11:23:49;;;;;;;3.92;1.33;;;17.20;42.30;;;;;;5047524;28;20044;-64
2022/04/19 11:26:26;;;;;;;5.97;1.50;;;17.30;42.30;;;;;;5049151;28;20045;-64
2022/04/19 11:29:10;;;;;;;11.98;1.50;;;17.30;42.30;;;;;;5048523;28;20040;-64
2022/04/19 11:31:45;;;;;;;6.85;1.35;;;17.30;43.30;;;;;;5044823;28;20033;-64
2022/04/19 11:34:15;;;;;;;11.35;1.45;;;17.40;43.50;;;;;;5042033;28;20053;-64
2022/04/19 11:36:41;;;;;;;3.28;1.65;;;17.50;43.40;;;;;;5046598;28;20055;-64
2022/04/19 11:39:07;;;;;;;1.75;1.02;;;17.50;43.80;;;;;;5047982;28;20053;-64
2022/04/19 11:46:44;;;;;;;3.63;1.40;;;17.60;43.00;;;;;;5048651;28;20045;-64
2022/04/19 11:47:04;;;;;;;3.63;1.70;;;17.60;42.40;;;;;;5045786;28;20048;-64
2022/04/19 11:49:34;;;;;;;4.30;1.75;;;17.70;43.00;;;;;;5048194;28;20040;-64
2022/04/19 11:52:02;;;;;;;3.72;1.20;;;17.80;43.00;;;;;;5047931;28;20048;-65
2022/04/19 11:54:34;;;;;;;3.13;1.10;;;17.90;43.80;;;;;;5048106;28;20136;-64
2022/04/19 11:57:09;;;;;;;1.95;1.17;;;18.00;43.40;;;;;;5047857;28;20049;-64
2022/04/19 11:59:39;;;;;;;4.03;1.45;;;18.00;43.20;;;;;;5047694;28;20345;-64
2022/04/19 12:02:14;;;;;;;2.33;1.10;;;18.10;42.70;;;;;;5046924;28;20045;-64
2022/04/19 12:04:49;;;;;;;2.67;0.93;;;18.10;42.90;;;;;;5047579;28;20055;-64
2022/04/19 12:07:16;;;;;;;1.85;1.02;;;18.10;42.50;;;;;;5047949;28;20087;-64
2022/04/19 12:09:43;;;;;;;3.10;1.33;;;18.10;43.00;;;;;;5047482;28;20055;-64
2022/04/19 12:12:10;;;;;;;3.88;1.92;;;18.20;43.50;;;;;;5046703;28;20462;-64
2022/04/19 12:14:36;;;;;;;2.95;1.58;;;18.20;42.90;;;;;;5047762;28;20048;-64
2022/04/19 12:17:06;;;;;;;3.60;1.70;;;18.20;42.50;;;;;;5046374;28;20124;-64
2022/04/19 12:19:42;;;;;;;5.50;1.63;;;18.20;41.90;;;;;;5049523;28;20072;-63
2022/04/19 12:22:17;;;;;;;6.45;1.50;;;18.20;41.70;;;;;;5052311;28;20048;-64
2022/04/19 12:24:52;;;;;;;4.28;1.63;;;18.20;41.90;;;;;;5051740;28;20053;-64
2022/04/19 12:27:27;;;;;;;4.03;1.95;;;18.20;42.80;;;;;;5055593;28;20049;-64
2022/04/19 12:30:14;;;;;;;3.63;1.75;;;18.40;43.20;;;;;;5051636;28;20508;-64
2022/04/19 12:32:53;;;;;;;6.95;2.05;;;18.30;40.60;;;;;;5051564;28;20440;-64
2022/04/19 12:35:24;;;;;;;3.05;1.85;;;18.30;42.70;;;;;;5051712;28;20052;-64
2022/04/19 12:38:05;;;;;;;3.13;1.67;;;18.30;43.30;;;;;;5051261;28;20054;-64
2022/04/19 12:40:31;;;;;;;;;;;18.50;42.40;;;;;;5051058;28;20045;-64
2022/04/19 12:42:56;;;;;;;4.07;1.85;;;18.50;43.10;;;;;;5051296;28;20455;-63
2022/04/19 12:45:22;;;;;;;6.30;2.75;;;18.50;42.90;;;;;;5051313;28;20129;-63
2022/04/19 12:47:49;;;;;;;4.60;1.85;;;18.60;41.70;;;;;;5051639;28;20037;-63
2022/04/19 12:50:17;;;;;;;5.80;2.40;;;18.60;42.40;;;;;;5051252;28;20561;-64
2022/04/19 12:52:42;;;;;;;3.22;1.85;;;18.60;41.80;;;;;;5051495;28;20505;-63
2022/04/19 12:55:09;;;;;;;2.97;1.80;;;18.60;41.70;;;;;;5050582;28;20041;-64
2022/04/19 12:57:38;;;;;;;4.45;2.67;;;18.70;42.10;;;;;;5050149;28;20087;-64
2022/04/19 13:00:05;;;;;;;3.50;1.92;;;18.80;42.10;;;;;;5049373;28;20151;-63
2022/04/19 13:02:31;;;;;;;4.82;1.70;;;18.90;42.20;;;;;;5050192;28;20123;-63
2022/04/19 13:04:57;;;;;;;4.78;2.35;;;19.00;42.10;;;;;;5050471;28;20810;-65
2022/04/19 13:12:16;;;;;;;4.18;1.70;;;18.90;39.90;;;;;;5050739;28;20088;-64
2022/04/19 13:13:06;;;;;;;5.70;2.22;;;18.80;40.50;;;;;;5050551;28;20084;-64
2022/04/19 13:15:32;;;;;;;3.45;1.73;;;18.80;41.10;;;;;;5050629;28;20080;-64
2022/04/19 13:17:58;;;;;;;4.72;2.00;;;19.00;41.40;;;;;;5050787;28;20082;-64
2022/04/19 13:20:24;;;;;;;3.78;1.85;;;19.10;41.10;;;;;;5053563;28;20041;-64
2022/04/19 13:22:50;;;;;;;6.70;2.00;;;19.10;40.70;;;;;;5051029;28;20511;-64
2022/04/19 13:25:16;;;;;;;6.43;2.35;;;19.10;40.10;;;;;;5051020;28;20513;-64